createdAt,value
2022-10-01T00:00:47.763Z,100.00
2022-10-01T00:04:06.659Z,100.00
2022-10-01T00:07:14.292Z,100.00
2022-10-01T00:10:17.494Z,100.00
2022-10-01T00:13:20.615Z,100.00
2022-10-01T00:16:24.918Z,100.00
2022-10-01T00:19:30.793Z,100.00
2022-10-01T00:22:37.548Z,100.00
2022-10-01T00:25:40.796Z,100.00
2022-10-01T00:28:47.930Z,100.00
2022-10-01T00:31:50.763Z,100.00
2022-10-01T00:34:53.528Z,100.00
2022-10-01T00:37:56.516Z,100.00
2022-10-01T00:41:01.401Z,100.00
2022-10-01T00:44:24.510Z,100.00
2022-10-01T00:47:31.309Z,100.00
2022-10-01T00:50:34.909Z,100.00
2022-10-01T00:53:38.181Z,100.00
2022-10-01T00:56:42.021Z,100.00
2022-10-01T00:59:47.190Z,100.00
2022-10-01T01:02:50.639Z,100.00
2022-10-01T01:05:54.393Z,100.00
2022-10-01T01:08:57.324Z,100.00
2022-10-01T01:12:07.311Z,100.00
2022-10-01T01:15:15.459Z,100.00
2022-10-01T01:18:21.464Z,100.00
2022-10-01T01:21:27.633Z,100.00
2022-10-01T01:24:39.903Z,100.00
2022-10-01T01:27:47.555Z,100.00
2022-10-01T01:30:52.923Z,100.00
2022-10-01T01:33:56.804Z,100.00
2022-10-01T01:37:01.464Z,100.00
2022-10-01T01:40:09.518Z,100.00
2022-10-01T01:43:16.799Z,100.00
2022-10-01T01:46:20.603Z,100.00
2022-10-01T01:49:31.548Z,100.00
2022-10-01T01:52:34.815Z,100.00
2022-10-01T01:55:38.415Z,100.00
2022-10-01T01:58:41.130Z,100.00
2022-10-01T02:01:44.239Z,100.00
2022-10-01T02:04:54.023Z,100.00
2022-10-01T02:08:13.871Z,100.00
2022-10-01T02:11:25.912Z,100.00
2022-10-01T02:14:35.421Z,100.00
2022-10-01T02:17:46.082Z,100.00
2022-10-01T02:20:52.117Z,100.00
2022-10-01T02:23:58.019Z,100.00
2022-10-01T02:27:03.495Z,100.00
2022-10-01T02:30:08.063Z,100.00
2022-10-01T02:33:13.687Z,100.00
2022-10-01T02:36:17.224Z,100.00
2022-10-01T02:39:22.388Z,100.00
2022-10-01T02:42:28.769Z,100.00
2022-10-01T02:45:34.465Z,100.00
2022-10-01T02:48:37.122Z,100.00
2022-10-01T02:51:43.871Z,100.00
2022-10-01T02:54:50.157Z,100.00
2022-10-01T02:57:53.866Z,100.00
2022-10-01T03:00:59.328Z,100.00
2022-10-01T03:04:02.205Z,100.00
2022-10-01T03:07:05.114Z,100.00
2022-10-01T03:10:08.983Z,100.00
2022-10-01T03:13:11.931Z,100.00
2022-10-01T03:16:14.674Z,100.00
2022-10-01T03:19:18.870Z,100.00
2022-10-01T03:22:22.137Z,100.00
2022-10-01T03:25:25.023Z,100.00
2022-10-01T03:28:28.673Z,100.00
2022-10-01T03:31:32.951Z,100.00
2022-10-01T03:34:35.933Z,100.00
2022-10-01T03:37:40.086Z,100.00
2022-10-01T03:40:43.329Z,100.00
2022-10-01T03:43:46.369Z,100.00
2022-10-01T03:46:51.606Z,100.00
2022-10-01T03:49:57.409Z,100.00
2022-10-01T03:53:00.130Z,100.00
2022-10-01T03:56:04.211Z,100.00
2022-10-01T03:59:07.896Z,100.00
2022-10-01T04:02:10.819Z,100.00
2022-10-01T04:05:13.967Z,100.00
2022-10-01T04:08:20.806Z,100.00
2022-10-01T04:11:26.489Z,100.00
2022-10-01T04:14:29.276Z,100.00
2022-10-01T04:17:31.942Z,100.00
2022-10-01T04:20:35.528Z,100.00
2022-10-01T04:23:38.060Z,100.00
2022-10-01T04:26:41.128Z,100.00
2022-10-01T04:29:43.727Z,100.00
2022-10-01T04:32:46.863Z,100.00
2022-10-01T04:35:49.438Z,100.00
2022-10-01T04:38:52.420Z,100.00
2022-10-01T04:41:57.580Z,100.00
2022-10-01T04:45:00.275Z,100.00
2022-10-01T04:48:03.352Z,100.00
2022-10-01T04:51:06.111Z,100.00
2022-10-01T04:54:08.710Z,100.00
2022-10-01T04:57:14.095Z,100.00
2022-10-01T05:00:18.321Z,100.00
2022-10-01T05:03:20.925Z,100.00
2022-10-01T05:06:23.825Z,100.00
2022-10-01T05:09:26.404Z,100.00
2022-10-01T05:12:29.365Z,100.00
2022-10-01T05:15:32.308Z,100.00
2022-10-01T05:18:34.887Z,100.00
2022-10-01T05:21:43.278Z,100.00
2022-10-01T05:24:46.893Z,100.00
2022-10-01T05:27:49.444Z,100.00
2022-10-01T05:30:52.030Z,100.00
2022-10-01T05:33:54.549Z,100.00
2022-10-01T05:37:00.350Z,100.00
2022-10-01T05:40:03.543Z,100.00
2022-10-01T05:43:06.068Z,100.00
2022-10-01T05:46:09.557Z,100.00
2022-10-01T05:49:12.204Z,100.00
2022-10-01T05:52:15.849Z,100.00
2022-10-01T05:55:18.659Z,100.00
2022-10-01T05:58:21.315Z,100.00
2022-10-01T06:01:23.954Z,100.00
2022-10-01T06:04:26.822Z,100.00
2022-10-01T06:07:31.542Z,100.00
2022-10-01T06:10:36.206Z,100.00
2022-10-01T06:13:39.603Z,100.00
2022-10-01T06:16:42.206Z,100.00
2022-10-01T06:19:44.810Z,100.00
2022-10-01T06:22:53.798Z,100.00
2022-10-01T06:25:58.644Z,100.00
2022-10-01T06:29:02.171Z,100.00
2022-10-01T06:32:04.823Z,100.00
2022-10-01T06:35:08.004Z,100.00
2022-10-01T06:38:10.806Z,100.00
2022-10-01T06:41:13.608Z,100.00
2022-10-01T06:44:16.153Z,100.00
2022-10-01T06:47:19.309Z,100.00
2022-10-01T06:50:22.056Z,100.00
2022-10-01T06:53:26.474Z,100.00
2022-10-01T06:56:29.075Z,100.00
2022-10-01T06:59:31.883Z,100.00
2022-10-01T07:02:34.449Z,100.00
2022-10-01T07:05:37.200Z,100.00
2022-10-01T07:08:39.895Z,100.00
2022-10-01T07:11:42.479Z,100.00
2022-10-01T07:14:45.117Z,100.00
2022-10-01T07:17:51.282Z,100.00
2022-10-01T07:20:56.084Z,100.00
2022-10-01T07:23:58.707Z,100.00
2022-10-01T07:27:06.517Z,100.00
2022-10-01T07:30:10.950Z,100.00
2022-10-01T07:33:17.351Z,100.00
2022-10-01T07:36:20.486Z,100.00
2022-10-01T07:39:24.519Z,99.98
2022-10-01T07:42:27.045Z,99.47
2022-10-01T07:45:29.674Z,98.73
2022-10-01T07:48:32.142Z,97.65
2022-10-01T07:51:36.153Z,96.43
2022-10-01T07:54:38.943Z,95.68
2022-10-01T07:57:41.456Z,94.15
2022-10-01T08:00:44.462Z,92.68
2022-10-01T08:03:48.610Z,91.52
2022-10-01T08:06:51.819Z,90.53
2022-10-01T08:09:54.364Z,88.58
2022-10-01T08:12:59.970Z,87.78
2022-10-01T08:16:03.543Z,85.69
2022-10-01T08:19:07.372Z,84.58
2022-10-01T08:22:09.952Z,84.35
2022-10-01T08:25:12.499Z,83.59
2022-10-01T08:28:15.769Z,82.24
2022-10-01T08:31:18.215Z,81.23
2022-10-01T08:34:23.359Z,80.20
2022-10-01T08:37:26.828Z,79.44
2022-10-01T08:40:30.091Z,78.02
2022-10-01T08:43:35.789Z,77.60
2022-10-01T08:46:38.592Z,77.59
2022-10-01T08:49:42.861Z,77.05
2022-10-01T08:52:50.430Z,75.87
2022-10-01T08:55:54.637Z,75.14
2022-10-01T08:58:58.169Z,73.92
2022-10-01T09:02:00.793Z,73.50
2022-10-01T09:05:05.335Z,74.20
2022-10-01T09:08:14.797Z,73.73
2022-10-01T09:11:29.089Z,72.05
2022-10-01T09:14:36.565Z,71.79
2022-10-01T09:17:52.552Z,70.99
2022-10-01T09:20:57.127Z,71.10
2022-10-01T09:24:03.633Z,70.53
2022-10-01T09:27:09.998Z,69.48
2022-10-01T09:30:15.416Z,69.28
2022-10-01T09:33:19.610Z,67.67
2022-10-01T09:36:25.660Z,67.15
2022-10-01T09:39:30.119Z,66.16
2022-10-01T09:42:32.647Z,64.89
2022-10-01T09:45:36.761Z,64.63
2022-10-01T09:48:42.601Z,64.64
2022-10-01T09:51:48.144Z,64.55
2022-10-01T09:54:52.128Z,65.21
2022-10-01T09:57:58.817Z,64.70
2022-10-01T10:01:03.201Z,64.66
2022-10-01T10:04:05.649Z,63.29
2022-10-01T10:07:11.879Z,62.68
2022-10-01T10:10:23.273Z,62.12
2022-10-01T10:13:34.580Z,60.76
2022-10-01T10:16:43.014Z,60.86
2022-10-01T10:19:48.817Z,61.34
2022-10-01T10:22:51.575Z,60.51
2022-10-01T10:25:54.925Z,59.97
2022-10-01T10:28:58.396Z,59.03
2022-10-01T10:32:04.022Z,59.17
2022-10-01T10:35:10.521Z,58.72
2022-10-01T10:38:17.748Z,58.19
2022-10-01T10:41:25.731Z,58.83
2022-10-01T10:44:34.470Z,59.33
2022-10-01T10:47:43.991Z,58.44
2022-10-01T10:50:46.960Z,58.14
2022-10-01T10:53:50.393Z,58.43
2022-10-01T10:57:00.024Z,57.70
2022-10-01T11:00:07.340Z,57.52
2022-10-01T11:03:14.280Z,57.89
2022-10-01T11:06:18.070Z,58.23
2022-10-01T11:09:21.418Z,57.20
2022-10-01T11:12:29.425Z,56.79
2022-10-01T11:15:42.706Z,56.45
2022-10-01T11:18:57.979Z,56.69
2022-10-01T11:22:09.360Z,55.29
2022-10-01T11:25:30.316Z,55.44
2022-10-01T11:28:39.529Z,55.55
2022-10-01T11:31:47.094Z,55.14
2022-10-01T11:34:56.671Z,54.74
2022-10-01T11:38:17.698Z,54.65
2022-10-01T11:41:24.600Z,54.93
2022-10-01T11:44:29.984Z,55.01
2022-10-01T11:47:36.887Z,54.93
2022-10-01T11:50:42.253Z,54.97
2022-10-01T11:53:47.608Z,55.23
2022-10-01T11:57:11.112Z,55.14
2022-10-01T12:00:14.070Z,54.23
2022-10-01T12:03:20.695Z,54.21
2022-10-01T12:06:31.697Z,53.95
2022-10-01T12:09:38.940Z,53.65
2022-10-01T12:12:46.895Z,53.75
2022-10-01T12:15:53.004Z,53.85
2022-10-01T12:18:57.841Z,53.13
2022-10-01T12:22:03.420Z,53.26
2022-10-01T12:25:11.336Z,52.56
2022-10-01T12:28:18.200Z,52.71
2022-10-01T12:31:25.743Z,51.76
2022-10-01T12:34:32.936Z,52.02
2022-10-01T12:37:43.979Z,51.77
2022-10-01T12:40:50.273Z,51.90
2022-10-01T12:44:03.367Z,51.56
2022-10-01T12:47:18.288Z,51.74
2022-10-01T12:50:32.932Z,52.52
2022-10-01T12:53:39.635Z,53.42
2022-10-01T12:56:45.103Z,53.64
2022-10-01T12:59:53.388Z,54.21
2022-10-01T13:03:18.762Z,54.00
2022-10-01T13:06:27.265Z,54.01
2022-10-01T13:09:34.007Z,53.86
2022-10-01T13:12:45.089Z,54.17
2022-10-01T13:15:48.907Z,54.62
2022-10-01T13:18:57.052Z,54.43
2022-10-01T13:22:07.098Z,54.45
2022-10-01T13:25:19.229Z,54.72
2022-10-01T13:28:26.140Z,54.69
2022-10-01T13:31:34.369Z,54.93
2022-10-01T13:34:39.321Z,54.78
2022-10-01T13:37:43.159Z,55.23
2022-10-01T13:40:56.802Z,55.61
2022-10-01T13:44:04.156Z,56.40
2022-10-01T13:47:09.308Z,56.86
2022-10-01T13:50:20.091Z,57.64
2022-10-01T13:53:24.222Z,57.79
2022-10-01T13:56:29.188Z,58.07
2022-10-01T13:59:33.063Z,58.45
2022-10-01T14:02:37.071Z,59.25
2022-10-01T14:05:40.787Z,61.13
2022-10-01T14:08:46.110Z,62.52
2022-10-01T14:12:09.148Z,63.72
2022-10-01T14:15:33.873Z,64.90
2022-10-01T14:18:39.120Z,64.66
2022-10-01T14:21:48.771Z,63.37
2022-10-01T14:25:02.886Z,63.03
2022-10-01T14:28:18.988Z,62.24
2022-10-01T14:31:28.094Z,61.78
2022-10-01T14:34:39.298Z,61.29
2022-10-01T14:37:41.919Z,60.91
2022-10-01T14:40:47.102Z,60.75
2022-10-01T14:43:49.912Z,60.77
2022-10-01T14:46:53.600Z,61.07
2022-10-01T14:49:56.424Z,61.92
2022-10-01T14:53:07.691Z,62.98
2022-10-01T14:56:14.074Z,63.75
2022-10-01T14:59:19.955Z,64.60
2022-10-01T15:02:23.543Z,65.73
2022-10-01T15:05:27.562Z,66.32
2022-10-01T15:08:36.853Z,67.10
2022-10-01T15:11:44.282Z,67.74
2022-10-01T15:14:47.699Z,68.20
2022-10-01T15:17:50.383Z,69.11
2022-10-01T15:20:58.823Z,69.55
2022-10-01T15:24:03.724Z,70.57
2022-10-01T15:27:07.427Z,71.29
2022-10-01T15:30:13.653Z,72.52
2022-10-01T15:33:20.864Z,73.21
2022-10-01T15:36:23.615Z,75.06
2022-10-01T15:39:29.272Z,75.70
2022-10-01T15:42:32.841Z,76.50
2022-10-01T15:45:35.611Z,78.39
2022-10-01T15:48:38.368Z,79.05
2022-10-01T15:52:06.856Z,80.83
2022-10-01T15:55:14.521Z,81.16
2022-10-01T15:58:19.784Z,82.31
2022-10-01T16:01:23.958Z,83.42
2022-10-01T16:04:27.040Z,84.00
2022-10-01T16:07:30.455Z,84.73
2022-10-01T16:10:34.307Z,86.18
2022-10-01T16:13:40.612Z,87.25
2022-10-01T16:16:43.206Z,87.98
2022-10-01T16:19:46.621Z,88.30
2022-10-01T16:22:49.300Z,88.71
2022-10-01T16:25:52.389Z,89.62
2022-10-01T16:28:55.799Z,90.01
2022-10-01T16:31:58.842Z,90.46
2022-10-01T16:35:22.532Z,90.59
2022-10-01T16:38:25.699Z,91.21
2022-10-01T16:41:28.672Z,91.86
2022-10-01T16:44:31.862Z,92.02
2022-10-01T16:47:36.534Z,91.74
2022-10-01T16:50:42.786Z,91.73
2022-10-01T16:53:46.402Z,91.99
2022-10-01T16:56:50.268Z,92.55
2022-10-01T16:59:53.062Z,92.27
2022-10-01T17:02:58.159Z,92.07
2022-10-01T17:06:00.849Z,92.39
2022-10-01T17:09:03.439Z,92.94
2022-10-01T17:12:06.124Z,93.30
2022-10-01T17:15:11.867Z,93.24
2022-10-01T17:18:14.492Z,93.15
2022-10-01T17:21:17.128Z,94.11
2022-10-01T17:24:22.401Z,94.04
2022-10-01T17:27:27.046Z,94.51
2022-10-01T17:30:29.653Z,94.97
2022-10-01T17:33:32.462Z,94.61
2022-10-01T17:36:35.272Z,95.84
2022-10-01T17:39:38.766Z,96.52
2022-10-01T17:42:41.572Z,96.73
2022-10-01T17:45:46.778Z,97.29
2022-10-01T17:48:50.242Z,97.95
2022-10-01T17:51:53.155Z,98.61
2022-10-01T17:54:55.681Z,98.98
2022-10-01T17:57:58.336Z,99.20
2022-10-01T18:01:01.175Z,99.24
2022-10-01T18:04:05.117Z,99.84
2022-10-01T18:07:08.102Z,99.98
2022-10-01T18:10:11.850Z,100.00
2022-10-01T18:13:15.125Z,100.00
2022-10-01T18:16:19.364Z,100.00
2022-10-01T18:22:46.672Z,100.00
2022-10-01T18:25:49.417Z,100.00
2022-10-01T18:28:52.204Z,100.00
2022-10-01T18:31:57.565Z,100.00
2022-10-01T18:35:00.742Z,100.00
2022-10-01T18:38:10.451Z,100.00
2022-10-01T18:41:17.358Z,100.00
2022-10-01T18:44:20.676Z,100.00
2022-10-01T18:47:27.553Z,100.00
2022-10-01T18:50:40.950Z,100.00
2022-10-01T18:53:52.946Z,100.00
2022-10-01T18:57:05.291Z,100.00
2022-10-01T19:00:09.766Z,100.00
2022-10-01T19:03:21.126Z,100.00
2022-10-01T19:06:28.085Z,100.00
2022-10-01T19:09:38.209Z,100.00
2022-10-01T19:12:47.946Z,100.00
2022-10-01T19:15:57.838Z,100.00
2022-10-01T19:19:10.635Z,100.00
2022-10-01T19:22:17.173Z,100.00
2022-10-01T19:25:22.127Z,100.00
2022-10-01T19:28:32.625Z,100.00
2022-10-01T19:31:41.455Z,100.00
2022-10-01T19:34:48.787Z,100.00
2022-10-01T19:37:52.297Z,100.00
2022-10-01T19:40:56.768Z,100.00
2022-10-01T19:44:00.411Z,100.00
2022-10-01T19:47:07.102Z,100.00
2022-10-01T19:50:18.940Z,100.00
2022-10-01T19:53:26.042Z,100.00
2022-10-01T19:56:29.132Z,100.00
2022-10-01T19:59:31.647Z,100.00
2022-10-01T20:02:38.857Z,100.00
2022-10-01T20:05:44.420Z,100.00
2022-10-01T20:08:52.780Z,100.00
2022-10-01T20:12:01.104Z,100.00
2022-10-01T20:15:09.051Z,100.00
2022-10-01T20:18:16.887Z,100.00
2022-10-01T20:21:30.243Z,100.00
2022-10-01T20:24:46.149Z,100.00
2022-10-01T20:27:54.285Z,100.00
2022-10-01T20:31:00.258Z,100.00
2022-10-01T20:34:06.949Z,100.00
2022-10-01T20:37:18.065Z,100.00
2022-10-01T20:40:24.654Z,100.00
2022-10-01T20:43:30.850Z,100.00
2022-10-01T20:46:35.838Z,100.00
2022-10-01T20:49:43.816Z,100.00
2022-10-01T20:52:52.209Z,100.00
2022-10-01T20:55:56.702Z,100.00
2022-10-01T20:59:02.081Z,100.00
2022-10-01T21:02:23.049Z,100.00
2022-10-01T21:05:26.500Z,100.00
2022-10-01T21:08:38.170Z,100.00
2022-10-01T21:11:44.824Z,100.00
2022-10-01T21:14:50.681Z,100.00
2022-10-01T21:17:57.767Z,100.00
2022-10-01T21:21:09.642Z,100.00
2022-10-01T21:24:22.809Z,100.00
2022-10-01T21:27:32.947Z,100.00
2022-10-01T21:30:41.808Z,100.00
2022-10-01T21:33:48.032Z,100.00
2022-10-01T21:36:58.434Z,100.00
2022-10-01T21:40:06.194Z,100.00
2022-10-01T21:43:11.881Z,100.00
2022-10-01T21:46:19.390Z,100.00
2022-10-01T21:49:28.834Z,100.00
2022-10-01T21:52:39.004Z,100.00
2022-10-01T21:55:49.031Z,100.00
2022-10-01T21:58:56.788Z,100.00
2022-10-01T22:02:04.453Z,100.00
2022-10-01T22:05:11.247Z,100.00
2022-10-01T22:08:22.616Z,100.00
2022-10-01T22:11:27.755Z,100.00
2022-10-01T22:14:30.800Z,100.00
2022-10-01T22:17:33.739Z,100.00
2022-10-01T22:20:39.180Z,100.00
2022-10-01T22:23:44.644Z,100.00
2022-10-01T22:26:49.171Z,100.00
2022-10-01T22:29:56.445Z,100.00
2022-10-01T22:33:05.239Z,100.00
2022-10-01T22:36:11.531Z,100.00
2022-10-01T22:39:19.188Z,100.00
2022-10-01T22:42:25.035Z,100.00
2022-10-01T22:45:32.040Z,100.00
2022-10-01T22:48:47.059Z,100.00
2022-10-01T22:51:57.015Z,100.00
2022-10-01T22:55:07.172Z,100.00
2022-10-01T23:01:40.904Z,100.00
2022-10-01T23:04:51.061Z,100.00
2022-10-01T23:07:58.859Z,100.00
2022-10-01T23:11:06.260Z,100.00
2022-10-01T23:14:13.084Z,100.00
2022-10-01T23:17:18.303Z,100.00
2022-10-01T23:20:27.422Z,100.00
2022-10-01T23:23:31.334Z,100.00
2022-10-01T23:26:40.430Z,100.00
2022-10-01T23:29:53.552Z,100.00
2022-10-01T23:33:16.565Z,100.00
2022-10-01T23:36:28.099Z,100.00
2022-10-01T23:39:43.099Z,100.00
2022-10-01T23:42:52.402Z,100.00
2022-10-01T23:45:59.744Z,100.00
2022-10-01T23:49:05.200Z,100.00
2022-10-01T23:52:13.812Z,100.00
2022-10-01T23:55:53.617Z,100.00
2022-10-01T23:59:01.708Z,100.00
